Time;durP1;ratioP1;P1;durP2;ratioP2;P2;SDS_P1;SDS_P2;PMS_P1;PMS_P2;Temp;Humidity;BMP_temperature;BMP_pressure;BME280_temperature;BME280_humidity;BME280_pressure;Samples;Min_cycle;Max_cycle;Signal;HPM_P1;HPM_P2
2023/07/05 00:00:53;;;;;;;7.63;6.65;;;;;;;;;;5022042;28;20372;-78
2023/07/05 00:03:19;;;;;;;10.20;6.45;;;;;;;;;;5038643;28;20025;-78
2023/07/05 00:05:44;;;;;;;10.77;6.50;;;;;;;;;;5022005;28;20032;-78
2023/07/05 00:08:09;;;;;;;9.07;7.15;;;;;;;;;;5056460;28;20028;-78
2023/07/05 00:10:35;;;;;;;10.10;6.60;;;;;;;;;;5038469;28;20031;-78
2023/07/05 00:13:01;;;;;;;7.60;6.50;;;;;;;;;;5005685;28;20051;-78
2023/07/05 00:15:27;;;;;;;10.32;7.05;;;;;;;;;;5038493;28;20440;-78
2023/07/05 00:17:53;;;;;;;11.15;6.32;;;;;;;;;;5038320;28;20025;-78
2023/07/05 00:20:19;;;;;;;11.35;6.28;;;;;;;;;;5038175;28;20724;-78
2023/07/05 00:22:44;;;;;;;10.30;6.68;;;;;;;;;;5021893;28;20029;-78
2023/07/05 00:25:10;;;;;;;11.82;7.10;;;;;;;;;;5038674;28;20025;-78
2023/07/05 00:27:35;;;;;;;12.15;7.05;;;;;;;;;;5055167;28;20035;-78
2023/07/05 00:30:00;;;;;;;10.43;6.85;;;;;;;;;;5038080;28;20048;-78
2023/07/05 00:32:26;;;;;;;10.60;6.75;;;;;;;;;;5038344;28;20082;-78
2023/07/05 00:34:51;;;;;;;10.38;7.10;;;;;;;;;;5021782;28;20028;-78
2023/07/05 00:37:17;;;;;;;9.25;7.30;;;;;;;;;;5037963;28;20025;-78
2023/07/05 00:39:42;;;;;;;9.75;7.35;;;;;;;;;;5038322;28;20364;-79
2023/07/05 00:42:08;;;;;;;12.73;7.00;;;;;;;;;;5055319;28;20029;-79
2023/07/05 00:44:33;;;;;;;9.35;7.10;;;;;;;;;;5037867;28;20024;-78
2023/07/05 00:47:14;;;;;;;9.75;7.07;;;;;;;;;;5037888;28;20025;-78
2023/07/05 00:49:39;;;;;;;12.10;8.25;;;;;;;;;;5037914;28;20065;-78
2023/07/05 00:52:09;;;;;;;15.15;8.23;;;;;;;;;;5021186;28;20044;-76
2023/07/05 00:54:38;;;;;;;15.57;7.63;;;;;;;;;;5018320;28;20072;-76
2023/07/05 00:57:07;;;;;;;11.82;8.02;;;;;;;;;;5017973;28;20457;-77
2023/07/05 00:59:35;;;;;;;13.05;7.68;;;;;;;;;;5035189;28;20037;-80
2023/07/05 01:02:00;;;;;;;12.70;7.65;;;;;;;;;;5034295;28;20033;-77
2023/07/05 01:04:25;;;;;;;18.13;7.55;;;;;;;;;;5035438;28;20436;-77
2023/07/05 01:06:51;;;;;;;11.00;7.72;;;;;;;;;;5035253;28;20022;-77
2023/07/05 01:09:17;;;;;;;11.90;7.78;;;;;;;;;;5033457;28;20037;-76
2023/07/05 01:11:51;;;;;;;13.63;7.78;;;;;;;;;;5035310;28;20456;-77
2023/07/05 01:14:37;;;;;;;13.45;8.02;;;;;;;;;;5033923;28;20037;-77
2023/07/05 01:17:15;;;;;;;13.75;8.00;;;;;;;;;;5017593;28;20051;-77
2023/07/05 01:19:49;;;;;;;12.00;7.97;;;;;;;;;;5034835;28;20116;-77
2023/07/05 01:22:56;;;;;;;10.75;7.85;;;;;;;;;;5035114;28;20040;-78
2023/07/05 01:25:52;;;;;;;8.80;7.80;;;;;;;;;;5018032;28;20132;-77
2023/07/05 01:28:38;;;;;;;12.98;8.60;;;;;;;;;;5017586;28;20029;-77
2023/07/05 01:31:41;;;;;;;13.80;8.73;;;;;;;;;;5034910;28;20643;-77
2023/07/05 01:34:09;;;;;;;17.42;8.27;;;;;;;;;;5034028;28;20029;-77
2023/07/05 01:36:34;;;;;;;12.65;8.90;;;;;;;;;;5033729;28;20037;-77
2023/07/05 01:38:59;;;;;;;11.00;7.82;;;;;;;;;;5000742;28;20033;-78
2023/07/05 01:41:25;;;;;;;10.25;7.97;;;;;;;;;;5033309;28;20029;-77
2023/07/05 01:43:50;;;;;;;11.38;7.95;;;;;;;;;;5017178;28;20037;-77
2023/07/05 01:46:31;;;;;;;14.23;8.48;;;;;;;;;;5017288;28;20029;-80
2023/07/05 01:49:18;;;;;;;18.45;8.85;;;;;;;;;;5033334;28;20025;-77
2023/07/05 01:51:54;;;;;;;16.55;8.60;;;;;;;;;;5034747;28;20094;-76
2023/07/05 01:54:50;;;;;;;16.85;9.10;;;;;;;;;;5019287;28;20025;-76
2023/07/05 01:57:24;;;;;;;12.70;8.73;;;;;;;;;;5005691;28;20458;-78
2023/07/05 02:00:07;;;;;;;12.65;8.65;;;;;;;;;;5054130;28;20067;-78
2023/07/05 02:02:37;;;;;;;13.38;8.95;;;;;;;;;;5021816;28;20418;-77
2023/07/05 02:05:03;;;;;;;14.52;9.15;;;;;;;;;;5036509;28;20029;-76
2023/07/05 02:07:29;;;;;;;17.67;9.18;;;;;;;;;;5020392;28;20035;-77
2023/07/05 02:09:55;;;;;;;12.93;9.02;;;;;;;;;;5003452;28;20078;-78
2023/07/05 02:12:21;;;;;;;12.07;8.45;;;;;;;;;;5054179;28;20041;-77
2023/07/05 02:14:47;;;;;;;13.55;8.65;;;;;;;;;;5054303;28;20029;-78
2023/07/05 02:17:12;;;;;;;13.25;8.98;;;;;;;;;;5036390;28;20029;-77
2023/07/05 02:19:38;;;;;;;11.57;8.80;;;;;;;;;;5036263;28;20107;-77
2023/07/05 02:22:04;;;;;;;15.27;9.05;;;;;;;;;;5036549;28;20443;-77
2023/07/05 02:24:29;;;;;;;15.50;9.20;;;;;;;;;;5019565;28;20353;-77
2023/07/05 02:26:55;;;;;;;10.85;8.32;;;;;;;;;;5036484;28;20021;-78
2023/07/05 02:29:21;;;;;;;16.75;9.02;;;;;;;;;;5036313;28;20495;-78
2023/07/05 02:31:46;;;;;;;12.98;8.82;;;;;;;;;;5019946;28;20032;-77
2023/07/05 02:34:14;;;;;;;21.27;9.02;;;;;;;;;;5036274;28;20032;-78
2023/07/05 02:36:40;;;;;;;13.48;9.30;;;;;;;;;;5037326;28;20036;-78
2023/07/05 02:39:05;;;;;;;13.63;8.55;;;;;;;;;;5069353;28;20021;-80
2023/07/05 02:41:30;;;;;;;10.88;8.27;;;;;;;;;;5046252;28;20067;-78
2023/07/05 02:43:56;;;;;;;16.35;9.00;;;;;;;;;;5066317;28;20053;-78
2023/07/05 02:46:25;;;;;;;15.35;8.88;;;;;;;;;;5061401;28;20036;-78
2023/07/05 02:48:51;;;;;;;12.82;8.75;;;;;;;;;;5040390;28;20025;-78
2023/07/05 02:51:17;;;;;;;18.15;9.73;;;;;;;;;;5039857;28;20021;-79
2023/07/05 02:53:42;;;;;;;13.48;8.85;;;;;;;;;;5057365;28;20032;-78
2023/07/05 02:56:08;;;;;;;16.00;8.98;;;;;;;;;;5023188;28;20041;-78
2023/07/05 02:58:33;;;;;;;13.23;8.98;;;;;;;;;;5039697;28;20021;-79
2023/07/05 03:00:59;;;;;;;14.40;8.70;;;;;;;;;;5040229;28;20025;-79
2023/07/05 03:03:26;;;;;;;14.20;9.05;;;;;;;;;;5057690;28;20026;-79
2023/07/05 03:05:58;;;;;;;14.98;8.73;;;;;;;;;;5057344;28;20028;-78
2023/07/05 03:08:25;;;;;;;15.32;8.95;;;;;;;;;;5057531;28;20645;-78
2023/07/05 03:10:55;;;;;;;16.90;8.68;;;;;;;;;;5040003;28;20029;-78
2023/07/05 03:13:21;;;;;;;10.80;8.88;;;;;;;;;;5006881;28;20066;-78
2023/07/05 03:15:46;;;;;;;11.68;8.50;;;;;;;;;;5006551;28;20037;-79
2023/07/05 03:18:12;;;;;;;13.18;8.80;;;;;;;;;;5022734;28;20029;-78
2023/07/05 03:20:38;;;;;;;17.95;9.23;;;;;;;;;;5006828;28;20033;-77
2023/07/05 03:23:03;;;;;;;13.95;8.65;;;;;;;;;;5039431;28;20025;-78
2023/07/05 03:25:29;;;;;;;11.38;8.82;;;;;;;;;;5039757;28;20414;-77
2023/07/05 03:27:54;;;;;;;9.93;8.63;;;;;;;;;;5006460;28;20585;-77
2023/07/05 03:30:20;;;;;;;12.65;8.52;;;;;;;;;;5056908;28;20032;-78
2023/07/05 03:32:45;;;;;;;18.33;8.93;;;;;;;;;;5056923;28;20028;-77
2023/07/05 03:35:11;;;;;;;14.00;9.63;;;;;;;;;;5056854;28;20391;-78
2023/07/05 03:37:37;;;;;;;18.08;9.93;;;;;;;;;;5039000;28;20025;-78
2023/07/05 03:40:03;;;;;;;16.40;9.48;;;;;;;;;;5056667;28;20149;-78
2023/07/05 03:42:28;;;;;;;13.80;9.07;;;;;;;;;;5056974;28;20032;-79
2023/07/05 03:44:54;;;;;;;16.77;9.00;;;;;;;;;;5039414;28;20551;-78
2023/07/05 03:47:19;;;;;;;12.98;9.07;;;;;;;;;;5057035;28;20025;-78
2023/07/05 03:49:45;;;;;;;13.45;8.77;;;;;;;;;;5022467;28;20048;-79
2023/07/05 03:52:13;;;;;;;16.60;9.77;;;;;;;;;;5038432;28;20379;-79
2023/07/05 03:54:38;;;;;;;15.05;9.52;;;;;;;;;;5038777;28;20590;-79
2023/07/05 03:57:04;;;;;;;15.45;9.00;;;;;;;;;;5038851;28;20127;-79
2023/07/05 03:59:29;;;;;;;14.32;9.10;;;;;;;;;;5038928;28;20032;-79
2023/07/05 04:01:55;;;;;;;13.23;8.70;;;;;;;;;;5037357;28;20051;-80
2023/07/05 04:04:20;;;;;;;14.07;9.30;;;;;;;;;;5056511;28;20392;-78
2023/07/05 04:06:46;;;;;;;13.10;9.70;;;;;;;;;;5022085;28;20397;-79
2023/07/05 04:09:11;;;;;;;14.77;9.70;;;;;;;;;;5056162;28;20032;-79
2023/07/05 04:11:37;;;;;;;21.70;9.50;;;;;;;;;;5056433;28;20037;-80
2023/07/05 04:14:02;;;;;;;13.32;9.32;;;;;;;;;;5056610;28;20044;-79
2023/07/05 04:16:27;;;;;;;21.75;9.50;;;;;;;;;;5038456;28;20108;-79
2023/07/05 04:18:54;;;;;;;12.90;9.48;;;;;;;;;;5021944;28;20044;-79
2023/07/05 04:21:20;;;;;;;16.65;9.13;;;;;;;;;;5038211;28;20028;-79
2023/07/05 04:23:45;;;;;;;15.65;8.82;;;;;;;;;;5021717;28;20086;-78
2023/07/05 04:26:12;;;;;;;17.20;8.80;;;;;;;;;;5021576;28;20103;-78
2023/07/05 04:28:38;;;;;;;17.40;9.27;;;;;;;;;;5021743;28;20040;-78
2023/07/05 04:31:07;;;;;;;15.77;8.95;;;;;;;;;;5021787;28;20020;-80
2023/07/05 04:33:32;;;;;;;14.65;9.27;;;;;;;;;;5038117;28;20021;-78
2023/07/05 04:35:59;;;;;;;18.00;9.25;;;;;;;;;;5037634;28;20040;-79
2023/07/05 04:38:25;;;;;;;18.05;9.77;;;;;;;;;;5021443;28;20028;-78
2023/07/05 04:40:50;;;;;;;16.02;9.95;;;;;;;;;;5037693;28;20032;-79
2023/07/05 04:43:16;;;;;;;12.13;9.05;;;;;;;;;;5021455;28;20033;-78
2023/07/05 04:45:51;;;;;;;14.68;9.63;;;;;;;;;;5037712;28;20083;-78
2023/07/05 04:48:16;;;;;;;12.82;8.73;;;;;;;;;;5037935;28;20131;-79
2023/07/05 04:50:42;;;;;;;12.20;9.50;;;;;;;;;;5038072;28;20436;-83
2023/07/05 04:53:08;;;;;;;13.80;9.18;;;;;;;;;;5056016;28;20504;-84
2023/07/05 04:55:33;;;;;;;14.60;9.50;;;;;;;;;;5055330;28;20055;-83
2023/07/05 04:57:58;;;;;;;17.10;9.23;;;;;;;;;;5037779;28;20039;-83
2023/07/05 05:00:24;;;;;;;13.23;9.20;;;;;;;;;;5037593;28;20434;-83
2023/07/05 05:02:50;;;;;;;12.35;9.00;;;;;;;;;;5037335;28;20033;-83
2023/07/05 05:05:16;;;;;;;15.45;8.98;;;;;;;;;;5020886;28;20033;-83
2023/07/05 05:07:41;;;;;;;15.13;8.98;;;;;;;;;;5022025;28;20098;-83
2023/07/05 05:10:07;;;;;;;19.70;9.80;;;;;;;;;;5037636;28;20089;-84
2023/07/05 05:12:32;;;;;;;10.00;7.97;;;;;;;;;;5020557;28;20430;-84
2023/07/05 05:14:58;;;;;;;12.45;9.32;;;;;;;;;;5004837;28;20586;-81
2023/07/05 05:17:23;;;;;;;12.80;9.63;;;;;;;;;;5020775;28;20028;-84
2023/07/05 05:19:49;;;;;;;13.52;8.85;;;;;;;;;;5004205;28;20033;-85
2023/07/05 05:22:14;;;;;;;12.88;8.95;;;;;;;;;;5020512;28;20035;-84
2023/07/05 05:24:40;;;;;;;18.08;10.07;;;;;;;;;;5037017;28;20108;-85
2023/07/05 05:27:05;;;;;;;14.85;8.93;;;;;;;;;;5037211;28;20024;-84
2023/07/05 05:29:31;;;;;;;13.98;8.70;;;;;;;;;;5020681;28;20348;-83
2023/07/05 05:31:57;;;;;;;11.10;8.30;;;;;;;;;;5036923;28;20029;-83
2023/07/05 05:34:24;;;;;;;12.70;8.27;;;;;;;;;;5003865;28;20120;-83
2023/07/05 05:36:50;;;;;;;13.10;8.13;;;;;;;;;;5006949;28;20033;-82
2023/07/05 05:39:15;;;;;;;10.73;7.47;;;;;;;;;;5040613;28;20033;-83
2023/07/05 05:41:41;;;;;;;11.75;8.40;;;;;;;;;;5009169;28;20123;-82
2023/07/05 05:44:06;;;;;;;13.95;7.88;;;;;;;;;;5026000;28;20456;-84
2023/07/05 05:46:32;;;;;;;11.43;8.18;;;;;;;;;;5042977;28;20028;-84
2023/07/05 05:48:57;;;;;;;16.27;8.77;;;;;;;;;;5025081;28;20028;-83
2023/07/05 05:51:23;;;;;;;13.65;8.40;;;;;;;;;;5041868;28;20060;-82
2023/07/05 05:53:48;;;;;;;11.73;8.13;;;;;;;;;;5024793;28;20021;-84
2023/07/05 05:56:14;;;;;;;16.92;8.95;;;;;;;;;;5009110;28;20072;-82
2023/07/05 05:58:39;;;;;;;14.77;8.18;;;;;;;;;;5060051;28;20098;-84
2023/07/05 06:01:05;;;;;;;15.48;10.88;;;;;;;;;;5059036;28;20025;-83
2023/07/05 06:03:30;;;;;;;16.30;10.05;;;;;;;;;;5042250;28;20031;-83
2023/07/05 06:05:56;;;;;;;15.98;9.43;;;;;;;;;;5027365;28;20032;-78
2023/07/05 06:08:21;;;;;;;11.63;8.18;;;;;;;;;;5010053;28;20074;-79
2023/07/05 06:10:54;;;;;;;11.80;8.02;;;;;;;;;;5025001;28;20029;-80
2023/07/05 06:13:20;;;;;;;13.98;8.93;;;;;;;;;;5040702;28;20444;-79
2023/07/05 06:15:45;;;;;;;11.18;8.48;;;;;;;;;;5041369;28;20124;-80
2023/07/05 06:18:10;;;;;;;10.98;8.18;;;;;;;;;;5023796;28;20029;-78
2023/07/05 06:20:39;;;;;;;11.77;7.85;;;;;;;;;;5025452;28;20441;-78
2023/07/05 06:23:04;;;;;;;9.27;7.27;;;;;;;;;;5057063;28;20026;-78
2023/07/05 06:25:30;;;;;;;12.48;8.65;;;;;;;;;;5021860;28;20395;-77
2023/07/05 06:27:56;;;;;;;10.02;8.05;;;;;;;;;;5058230;28;20029;-79
2023/07/05 06:30:21;;;;;;;12.43;7.88;;;;;;;;;;5056439;28;20600;-79
2023/07/05 06:32:47;;;;;;;12.85;8.68;;;;;;;;;;5038738;28;20033;-80
2023/07/05 06:35:12;;;;;;;12.20;8.32;;;;;;;;;;5023041;28;20479;-78
2023/07/05 06:37:38;;;;;;;13.18;8.40;;;;;;;;;;5021764;28;20033;-79
2023/07/05 06:40:04;;;;;;;12.73;8.27;;;;;;;;;;5039528;28;20045;-79
2023/07/05 06:42:30;;;;;;;11.85;8.23;;;;;;;;;;5040065;28;20039;-79
2023/07/05 06:44:55;;;;;;;17.25;8.60;;;;;;;;;;5023006;28;20033;-79
2023/07/05 06:47:22;;;;;;;10.38;8.38;;;;;;;;;;5037219;28;20552;-79
2023/07/05 06:49:48;;;;;;;12.40;8.27;;;;;;;;;;5025021;28;20127;-79
2023/07/05 06:52:13;;;;;;;14.85;9.10;;;;;;;;;;5055964;28;20060;-78
2023/07/05 06:54:39;;;;;;;9.23;8.27;;;;;;;;;;5038089;28;20397;-80
2023/07/05 06:57:05;;;;;;;12.05;8.30;;;;;;;;;;5040511;28;20475;-78
2023/07/05 06:59:32;;;;;;;11.93;8.55;;;;;;;;;;5040681;28;20037;-79
2023/07/05 07:01:57;;;;;;;10.05;8.43;;;;;;;;;;5024395;28;20056;-80
2023/07/05 07:04:23;;;;;;;12.98;8.02;;;;;;;;;;5057543;28;20530;-78
2023/07/05 07:06:49;;;;;;;11.93;7.38;;;;;;;;;;5043436;28;20021;-80
2023/07/05 07:09:15;;;;;;;10.75;6.88;;;;;;;;;;5046597;28;20605;-80
2023/07/05 07:11:40;;;;;;;12.38;6.95;;;;;;;;;;5044022;28;20103;-80
2023/07/05 07:14:08;;;;;;;10.73;6.93;;;;;;;;;;5032679;28;20063;-80
2023/07/05 07:16:33;;;;;;;9.07;7.40;;;;;;;;;;5040420;28;20090;-80
2023/07/05 07:18:59;;;;;;;9.73;7.95;;;;;;;;;;5043292;28;20132;-80
2023/07/05 07:21:25;;;;;;;12.93;8.35;;;;;;;;;;5054043;28;20097;-81
2023/07/05 07:23:51;;;;;;;12.57;8.70;;;;;;;;;;5037242;28;20021;-82
2023/07/05 07:26:18;;;;;;;12.00;9.20;;;;;;;;;;5042247;28;20104;-78
2023/07/05 07:28:49;;;;;;;12.18;8.70;;;;;;;;;;5048438;28;20025;-78
2023/07/05 07:31:23;;;;;;;10.30;8.13;;;;;;;;;;5048341;28;20056;-76
2023/07/05 07:33:48;;;;;;;14.07;8.45;;;;;;;;;;5046041;28;20065;-77
2023/07/05 07:36:17;;;;;;;10.95;8.60;;;;;;;;;;5037752;28;20563;-77
2023/07/05 07:38:42;;;;;;;16.40;8.75;;;;;;;;;;5011618;28;20415;-77
2023/07/05 07:41:15;;;;;;;13.00;9.10;;;;;;;;;;5022307;28;20025;-77
2023/07/05 07:43:41;;;;;;;17.35;9.38;;;;;;;;;;5002972;28;20033;-76
2023/07/05 07:46:13;;;;;;;16.30;8.90;;;;;;;;;;5004505;28;20039;-77
2023/07/05 07:48:40;;;;;;;15.90;9.43;;;;;;;;;;5032032;28;20040;-78
2023/07/05 07:51:05;;;;;;;11.18;9.00;;;;;;;;;;5020256;28;20112;-77
2023/07/05 07:53:31;;;;;;;12.05;8.98;;;;;;;;;;5053503;28;20104;-77
2023/07/05 07:55:57;;;;;;;15.85;9.10;;;;;;;;;;5036446;28;20147;-77
2023/07/05 07:58:23;;;;;;;14.18;9.30;;;;;;;;;;5019229;28;20124;-78
2023/07/05 08:00:48;;;;;;;13.85;8.65;;;;;;;;;;5022630;28;20523;-78
2023/07/05 08:03:17;;;;;;;12.25;8.77;;;;;;;;;;5022004;28;20033;-78
2023/07/05 08:05:43;;;;;;;14.88;8.88;;;;;;;;;;5039306;28;20065;-78
2023/07/05 08:08:09;;;;;;;16.08;9.82;;;;;;;;;;5042131;28;20033;-79
2023/07/05 08:10:34;;;;;;;14.95;8.68;;;;;;;;;;5038800;28;20372;-76
2023/07/05 08:12:59;;;;;;;11.45;8.73;;;;;;;;;;5042395;28;20034;-76
2023/07/05 08:15:25;;;;;;;13.70;9.63;;;;;;;;;;5037870;28;20063;-77
2023/07/05 08:17:50;;;;;;;15.27;9.30;;;;;;;;;;5007250;28;20068;-78
2023/07/05 08:20:16;;;;;;;12.20;9.10;;;;;;;;;;5023234;28;20118;-77
2023/07/05 08:22:42;;;;;;;13.93;9.05;;;;;;;;;;5038789;28;20087;-79
2023/07/05 08:25:07;;;;;;;13.55;8.68;;;;;;;;;;5038896;28;20032;-80
2023/07/05 08:27:33;;;;;;;14.32;8.80;;;;;;;;;;5039378;28;20072;-77
2023/07/05 08:29:58;;;;;;;14.88;9.38;;;;;;;;;;5039821;28;20060;-76
2023/07/05 08:32:24;;;;;;;13.30;9.20;;;;;;;;;;5008841;28;20079;-79
2023/07/05 08:34:51;;;;;;;18.00;9.13;;;;;;;;;;5024396;28;20021;-78
2023/07/05 08:37:17;;;;;;;13.02;8.50;;;;;;;;;;5040393;28;20053;-78
2023/07/05 08:39:42;;;;;;;12.05;8.55;;;;;;;;;;5039834;28;20029;-78
2023/07/05 08:42:31;;;;;;;15.93;8.85;;;;;;;;;;5039656;28;20164;-79
2023/07/05 08:45:09;;;;;;;;;;;;;;;;;;5038025;28;20060;-77
2023/07/05 08:47:48;;;;;;;12.45;8.57;;;;;;;;;;5038123;28;19920;-78
2023/07/05 08:50:24;;;;;;;11.05;9.02;;;;;;;;;;5041896;28;20025;-78
2023/07/05 08:52:53;;;;;;;9.75;8.75;;;;;;;;;;5039131;28;20029;-78
2023/07/05 08:55:22;;;;;;;13.48;8.45;;;;;;;;;;5023678;28;20080;-77
2023/07/05 08:57:52;;;;;;;13.40;8.57;;;;;;;;;;5006666;28;20045;-77
2023/07/05 09:00:40;;;;;;;13.95;8.65;;;;;;;;;;5037692;28;20026;-78
2023/07/05 09:03:10;;;;;;;10.65;7.90;;;;;;;;;;5037575;28;20037;-77
2023/07/05 09:05:41;;;;;;;9.10;7.72;;;;;;;;;;5021059;28;20433;-77
2023/07/05 09:08:09;;;;;;;12.00;7.80;;;;;;;;;;5038956;28;20025;-77
2023/07/05 09:10:44;;;;;;;9.98;8.00;;;;;;;;;;5038034;28;20379;-78
2023/07/05 09:13:40;;;;;;;7.78;6.97;;;;;;;;;;5039054;28;20050;-78
2023/07/05 09:16:41;;;;;;;11.50;7.43;;;;;;;;;;5038166;28;20038;-79
2023/07/05 09:19:13;;;;;;;17.20;7.18;;;;;;;;;;5039461;28;20040;-78
2023/07/05 09:21:46;;;;;;;11.75;7.68;;;;;;;;;;5038057;28;20026;-79
2023/07/05 09:24:18;;;;;;;10.25;7.35;;;;;;;;;;5022520;28;20080;-78
2023/07/05 09:26:54;;;;;;;8.50;7.30;;;;;;;;;;5039077;28;20025;-78
2023/07/05 09:29:46;;;;;;;12.07;7.75;;;;;;;;;;5021447;28;20036;-78
2023/07/05 09:32:23;;;;;;;12.48;7.88;;;;;;;;;;5039053;28;20407;-78
2023/07/05 09:34:51;;;;;;;10.02;7.50;;;;;;;;;;5023585;28;20033;-77
2023/07/05 09:37:19;;;;;;;14.98;8.10;;;;;;;;;;5021599;28;20445;-79
2023/07/05 09:40:15;;;;;;;12.18;6.97;;;;;;;;;;5019645;28;20171;-79
2023/07/05 09:43:12;;;;;;;8.48;6.90;;;;;;;;;;5036437;28;20025;-79
2023/07/05 09:45:37;;;;;;;10.48;6.72;;;;;;;;;;5036379;28;20430;-79
2023/07/05 09:48:05;;;;;;;8.65;6.90;;;;;;;;;;5037103;28;20119;-79
2023/07/05 09:50:30;;;;;;;9.68;7.10;;;;;;;;;;5020067;28;20086;-81
2023/07/05 09:53:24;;;;;;;15.18;7.03;;;;;;;;;;5020879;28;20453;-85
2023/07/05 09:56:09;;;;;;;9.18;6.65;;;;;;;;;;5039260;28;20045;-83
2023/07/05 09:58:36;;;;;;;8.90;6.85;;;;;;;;;;5036010;28;20038;-83
2023/07/05 10:01:04;;;;;;;13.15;7.63;;;;;;;;;;5018510;28;20441;-82
2023/07/05 10:03:38;;;;;;;10.50;7.30;;;;;;;;;;5020535;28;20128;-83
2023/07/05 10:06:08;;;;;;;8.10;6.70;;;;;;;;;;5020297;28;20026;-84
2023/07/05 10:08:52;;;;;;;10.68;6.90;;;;;;;;;;5020241;28;20022;-81
2023/07/05 10:11:28;;;;;;;13.93;6.90;;;;;;;;;;5021108;28;20029;-87
2023/07/05 10:14:06;;;;;;;13.85;6.80;;;;;;;;;;5035942;28;20061;-81
2023/07/05 10:16:51;;;;;;;11.27;7.25;;;;;;;;;;5020934;28;20025;-80
2023/07/05 10:19:29;;;;;;;7.47;6.63;;;;;;;;;;5038372;28;20472;-80
2023/07/05 10:22:14;;;;;;;8.00;7.07;;;;;;;;;;5019337;28;20095;-80
2023/07/05 10:24:43;;;;;;;9.90;7.45;;;;;;;;;;5036390;28;20513;-80
2023/07/05 10:27:28;;;;;;;;;;;;;;;;;;5021494;28;20029;-81
2023/07/05 10:30:05;;;;;;;10.65;7.60;;;;;;;;;;5037398;28;19917;-80
2023/07/05 10:32:31;;;;;;;8.85;7.28;;;;;;;;;;5037437;28;20029;-81
2023/07/05 10:34:56;;;;;;;8.65;7.00;;;;;;;;;;5017781;28;20104;-80
2023/07/05 10:37:33;;;;;;;10.13;7.20;;;;;;;;;;5002403;28;20426;-78
2023/07/05 10:40:03;;;;;;;12.18;7.78;;;;;;;;;;5017955;28;20026;-80
2023/07/05 10:42:29;;;;;;;12.63;7.40;;;;;;;;;;5001651;28;20021;-80
2023/07/05 10:44:55;;;;;;;14.18;7.38;;;;;;;;;;5000780;28;20117;-81
2023/07/05 10:47:21;;;;;;;12.15;6.75;;;;;;;;;;5001179;28;20354;-80
2023/07/05 10:49:47;;;;;;;12.15;6.53;;;;;;;;;;5018466;28;20037;-80
2023/07/05 10:52:15;;;;;;;11.73;6.80;;;;;;;;;;5017328;28;20030;-80
2023/07/05 10:55:02;;;;;;;9.77;6.78;;;;;;;;;;5002079;28;20034;-79
2023/07/05 10:57:31;;;;;;;9.27;6.20;;;;;;;;;;5021144;28;20030;-80
2023/07/05 11:00:12;;;;;;;9.70;5.95;;;;;;;;;;5018734;28;20030;-80
2023/07/05 11:02:45;;;;;;;8.93;6.55;;;;;;;;;;5020438;28;20476;-80
2023/07/05 11:05:25;;;;;;;10.75;6.35;;;;;;;;;;5038516;28;20026;-82
2023/07/05 11:07:51;;;;;;;10.23;6.03;;;;;;;;;;5021395;28;20037;-82
2023/07/05 11:10:17;;;;;;;10.75;6.40;;;;;;;;;;5021871;28;20543;-79
2023/07/05 11:12:45;;;;;;;8.80;6.53;;;;;;;;;;5042538;28;20072;-80
2023/07/05 11:15:14;;;;;;;12.27;6.30;;;;;;;;;;5025761;28;20109;-80
2023/07/05 11:17:41;;;;;;;10.45;6.07;;;;;;;;;;5027586;28;20445;-80
2023/07/05 11:20:43;;;;;;;14.35;6.57;;;;;;;;;;5025476;28;20060;-81
2023/07/05 11:23:09;;;;;;;9.75;6.50;;;;;;;;;;4926644;29;20090;-82
2023/07/05 11:25:53;;;;;;;12.75;6.40;;;;;;;;;;4993923;28;20042;-79
2023/07/05 11:28:37;;;;;;;15.82;6.90;;;;;;;;;;5041227;28;20114;-79
2023/07/05 11:31:04;;;;;;;13.50;6.68;;;;;;;;;;5025441;28;20021;-78
2023/07/05 11:33:29;;;;;;;9.75;7.03;;;;;;;;;;5025791;28;20025;-81
2023/07/05 11:35:56;;;;;;;10.60;7.05;;;;;;;;;;5043070;28;20083;-80
2023/07/05 11:38:40;;;;;;;11.93;6.95;;;;;;;;;;5027518;28;20029;-81
2023/07/05 11:41:07;;;;;;;10.35;6.55;;;;;;;;;;5043042;28;20041;-79
2023/07/05 11:43:42;;;;;;;12.40;6.68;;;;;;;;;;5024448;28;20025;-80
2023/07/05 11:46:39;;;;;;;13.52;7.15;;;;;;;;;;5023010;28;20089;-80
2023/07/05 11:49:43;;;;;;;15.55;7.57;;;;;;;;;;5041404;28;20047;-78
2023/07/05 11:52:15;;;;;;;14.43;7.68;;;;;;;;;;4944091;29;20040;-80
2023/07/05 11:55:23;;;;;;;9.35;7.30;;;;;;;;;;4928029;29;20091;-81
2023/07/05 11:58:03;;;;;;;12.97;7.90;;;;;;;;;;5024124;28;20044;-81
2023/07/05 12:00:38;;;;;;;;;;;;;;;;;;5026821;28;20480;-81
2023/07/05 12:03:05;;;;;;;12.25;7.20;;;;;;;;;;5045174;28;19912;-80
2023/07/05 12:05:32;;;;;;;13.25;7.60;;;;;;;;;;5031721;28;20032;-79
2023/07/05 12:08:14;;;;;;;12.95;7.97;;;;;;;;;;5031640;28;20028;-80
2023/07/05 12:10:42;;;;;;;13.55;8.25;;;;;;;;;;5032298;28;20033;-79
2023/07/05 12:13:31;;;;;;;14.88;8.88;;;;;;;;;;5029291;28;20041;-81
2023/07/05 12:15:57;;;;;;;12.27;8.35;;;;;;;;;;5013559;28;20029;-81
2023/07/05 12:18:22;;;;;;;12.35;8.27;;;;;;;;;;5007644;28;20032;-81
2023/07/05 12:20:49;;;;;;;13.25;8.95;;;;;;;;;;5008765;28;20397;-79
2023/07/05 12:23:16;;;;;;;20.08;9.52;;;;;;;;;;5019556;28;20071;-79
2023/07/05 12:25:46;;;;;;;13.95;8.30;;;;;;;;;;5021808;28;20025;-80
2023/07/05 12:28:21;;;;;;;14.38;8.93;;;;;;;;;;5022930;28;20065;-80
2023/07/05 12:30:47;;;;;;;14.10;8.32;;;;;;;;;;5023025;28;20140;-78
2023/07/05 12:33:23;;;;;;;14.10;8.35;;;;;;;;;;5041222;28;20464;-79
2023/07/05 12:36:16;;;;;;;11.60;8.38;;;;;;;;;;5023386;28;20112;-79
2023/07/05 12:38:43;;;;;;;13.38;8.23;;;;;;;;;;5019592;28;20033;-78
2023/07/05 12:41:24;;;;;;;18.20;8.48;;;;;;;;;;5024385;28;20048;-80
2023/07/05 12:43:58;;;;;;;20.77;8.50;;;;;;;;;;5022056;28;20108;-79
2023/07/05 12:46:26;;;;;;;12.57;8.40;;;;;;;;;;5037673;28;20109;-79
2023/07/05 12:48:51;;;;;;;13.52;9.05;;;;;;;;;;5017885;28;20069;-81
2023/07/05 12:51:21;;;;;;;11.18;8.48;;;;;;;;;;5035474;28;20060;-80
2023/07/05 12:53:48;;;;;;;14.27;8.77;;;;;;;;;;5017920;28;20418;-79
2023/07/05 12:56:41;;;;;;;13.60;8.73;;;;;;;;;;5017547;28;20468;-79
2023/07/05 12:59:15;;;;;;;12.80;8.70;;;;;;;;;;5004378;28;20529;-79
2023/07/05 13:01:41;;;;;;;21.02;9.75;;;;;;;;;;5001724;28;20036;-80
2023/07/05 13:04:17;;;;;;;15.85;9.02;;;;;;;;;;5035424;28;20026;-80
2023/07/05 13:06:43;;;;;;;12.23;8.48;;;;;;;;;;5017697;28;20036;-80
2023/07/05 13:09:08;;;;;;;16.63;9.18;;;;;;;;;;5017518;28;20029;-77
2023/07/05 13:11:34;;;;;;;10.60;8.88;;;;;;;;;;5017748;28;20053;-79
2023/07/05 13:14:10;;;;;;;17.40;9.45;;;;;;;;;;5034465;28;20445;-79
2023/07/05 13:16:41;;;;;;;17.52;8.75;;;;;;;;;;5017698;28;20131;-80
2023/07/05 13:19:07;;;;;;;11.88;8.27;;;;;;;;;;5035365;28;20034;-80
2023/07/05 13:21:43;;;;;;;10.68;8.38;;;;;;;;;;5017735;28;20025;-79
2023/07/05 13:24:27;;;;;;;20.90;9.20;;;;;;;;;;5017716;28;20033;-80
2023/07/05 13:26:56;;;;;;;11.70;8.43;;;;;;;;;;5033516;28;20026;-79
2023/07/05 13:29:26;;;;;;;12.32;8.07;;;;;;;;;;5017189;28;20410;-79
2023/07/05 13:31:52;;;;;;;14.88;8.23;;;;;;;;;;5016851;28;20398;-79
2023/07/05 13:34:18;;;;;;;14.18;8.65;;;;;;;;;;5017097;28;20029;-79
2023/07/05 13:36:44;;;;;;;11.82;8.63;;;;;;;;;;5017089;28;20040;-79
2023/07/05 13:39:13;;;;;;;14.43;8.88;;;;;;;;;;5016773;28;20038;-79
2023/07/05 13:41:39;;;;;;;15.15;8.70;;;;;;;;;;5017338;28;20037;-79
2023/07/05 13:44:12;;;;;;;12.40;8.85;;;;;;;;;;5017097;28;20144;-79
2023/07/05 13:46:37;;;;;;;12.90;8.68;;;;;;;;;;5017088;28;20094;-79
2023/07/05 13:49:03;;;;;;;10.57;8.63;;;;;;;;;;5017041;28;20119;-79
2023/07/05 13:51:30;;;;;;;11.63;8.32;;;;;;;;;;5017047;28;20025;-80
2023/07/05 13:53:55;;;;;;;13.15;8.50;;;;;;;;;;5017076;28;20129;-80
2023/07/05 13:56:21;;;;;;;18.55;8.95;;;;;;;;;;5016922;28;20041;-79
2023/07/05 13:58:47;;;;;;;15.82;8.98;;;;;;;;;;5034376;28;20475;-80
2023/07/05 14:01:16;;;;;;;13.63;8.52;;;;;;;;;;5016948;28;20083;-79
2023/07/05 14:03:42;;;;;;;;;;;;;;;;;;5017182;28;20367;-80
2023/07/05 14:06:13;;;;;;;13.13;8.35;;;;;;;;;;5000128;28;20003;-79
2023/07/05 14:08:38;;;;;;;14.25;8.65;;;;;;;;;;5016686;28;20045;-79
2023/07/05 14:11:04;;;;;;;10.52;8.63;;;;;;;;;;5034136;28;20380;-79
2023/07/05 14:13:29;;;;;;;10.35;8.63;;;;;;;;;;5034181;28;20022;-79
2023/07/05 14:15:55;;;;;;;15.88;8.48;;;;;;;;;;5016218;28;20025;-79
2023/07/05 14:18:21;;;;;;;17.23;8.45;;;;;;;;;;5034059;28;20088;-79
2023/07/05 14:20:49;;;;;;;10.52;8.35;;;;;;;;;;5034629;28;20096;-79
2023/07/05 14:23:16;;;;;;;13.85;8.60;;;;;;;;;;5000994;28;20029;-79
2023/07/05 14:25:51;;;;;;;11.48;8.45;;;;;;;;;;5016576;28;20029;-79
2023/07/05 14:28:17;;;;;;;21.90;9.05;;;;;;;;;;5017603;28;20056;-79
2023/07/05 14:30:42;;;;;;;10.60;8.30;;;;;;;;;;5000335;28;20364;-79
2023/07/05 14:33:10;;;;;;;16.67;8.55;;;;;;;;;;5016282;28;20026;-79
2023/07/05 14:35:35;;;;;;;16.58;8.18;;;;;;;;;;5016230;28;20033;-79
2023/07/05 14:38:01;;;;;;;10.07;8.10;;;;;;;;;;5016245;28;20029;-80
2023/07/05 14:40:26;;;;;;;13.55;8.32;;;;;;;;;;5033894;28;20026;-79
2023/07/05 14:42:52;;;;;;;13.85;8.45;;;;;;;;;;5016420;28;20476;-80
2023/07/05 14:45:29;;;;;;;19.30;8.07;;;;;;;;;;5016935;28;20508;-80
2023/07/05 14:47:56;;;;;;;18.85;7.88;;;;;;;;;;5020175;28;20036;-80